Merrillan, WI (54754)

8:58 PM CDT on April 25, 2017 (GMT -0500)
Black River Falls Area | | Change Station

Elev 837 ft 44.25 °N, 90.86 °W | Updated 3 minutes ago

Rain
Rain
56 °F
Feels Like 56 °F
N
7
Wind Variable Wind from NE

Today
High -- | Low -- °F
--% Chance of Precip.
Yesterday
High -- | Low -- °F
Precip. -- in
Pressure 29.54 in
Visibility 7.0 miles
Clouds Overcast 11000 ft
Dew Point 56 °F
Humidity 100%
Rainfall 0.32 in
Snow Depth Not available.
6:02 AM 8:00 PM
Waning Crescent, 0% visible
METAR KBCK 260155Z AUTO 04006KT 7SM -RA OVC110 13/13 A2954 RMK AO2 T01320132
Pressure 29.54 in
Visibility 7.0 miles
Clouds Overcast 11000 ft
Dew Point 56 °F
Humidity 100%
Rainfall 0.32 in
Snow Depth Not available.
6:02 AM 8:00 PM
Waning Crescent, 0% visible
METAR KBCK 260155Z AUTO 04006KT 7SM -RA OVC110 13/13 A2954 RMK AO2 T01320132

Get Severe Weather Alerts

Thanks for signing up!

Be on the lookout for a verification email in your inbox.

You'll start receiving the daily forecast at 8 AM.

×

10-Day Weather Forecast

Almanac

Astronomy

Apr. 25, 2017 Rise Set
Actual Time
Civil Twilight
Nautical Twilight
Astronomical Twilight
Moon
Length of Visible Light
Length of Day
Tomorrow will be .
, % of the Moon is Illuminated

Today's Extremes

State Highs State Lows

Community

WunderPhotos

WunderBlog® & News

Nearby

Air Quality

  Air Quality AQ Index Pollutant
Not available.

Snow Depth

Station Depth Elevation

Earthquake Activity

City Distance Mag. Time & Date
Minimum magnitude displayed is 2.5.

Coastal Water Temperatures

Place Temperature

Stations

Nearby Weather Stations

Station Location Temp. Windchill Dew Point Humidity Wind Precip. Elev Updated Type
                   

Watches & Warnings

There are currently no watches in effect.